createdAt,value
2022-12-11T00:01:21.443Z,78.23
2022-12-11T00:03:44.242Z,89.27
2022-12-11T00:06:10.700Z,77.57
2022-12-11T00:08:32.828Z,69.10
2022-12-11T00:10:54.923Z,82.70
2022-12-11T00:13:17.219Z,79.77
2022-12-11T00:15:39.448Z,79.10
2022-12-11T00:18:01.669Z,74.97
2022-12-11T00:20:23.863Z,80.23
2022-12-11T00:22:45.996Z,78.73
2022-12-11T00:25:09.822Z,73.50
2022-12-11T00:27:32.097Z,86.65
2022-12-11T00:29:54.743Z,78.30
2022-12-11T00:32:17.086Z,82.57
2022-12-11T00:34:39.266Z,76.17
2022-12-11T00:37:02.424Z,81.97
2022-12-11T00:39:24.753Z,84.30
2022-12-11T00:41:46.960Z,82.07
2022-12-11T00:44:09.224Z,84.80
2022-12-11T00:46:31.629Z,93.63
2022-12-11T00:48:53.867Z,81.03
2022-12-11T00:51:18.271Z,80.17
2022-12-11T00:56:02.454Z,76.70
2022-12-11T00:58:24.696Z,89.50
2022-12-11T01:00:48.355Z,90.70
2022-12-11T01:03:14.376Z,106.13
2022-12-11T01:05:36.813Z,75.17
2022-12-11T01:07:59.026Z,76.57
2022-12-11T01:10:24.239Z,91.93
2022-12-11T01:12:46.587Z,93.30
2022-12-11T01:15:09.415Z,93.07
2022-12-11T01:17:31.732Z,79.67
2022-12-11T01:19:55.095Z,93.63
2022-12-11T01:22:17.196Z,93.60
2022-12-11T01:24:39.243Z,72.50
2022-12-11T01:27:01.287Z,77.33
2022-12-11T01:29:23.364Z,100.03
2022-12-11T01:31:45.327Z,94.60
2022-12-11T01:34:07.370Z,96.20
2022-12-11T01:36:29.228Z,83.03
2022-12-11T01:38:51.536Z,88.00
2022-12-11T01:41:14.286Z,82.70
2022-12-11T01:44:08.476Z,89.23
2022-12-11T01:46:34.244Z,94.17
2022-12-11T01:48:57.986Z,102.87
2022-12-11T01:51:21.329Z,94.60
2022-12-11T01:53:55.130Z,86.57
2022-12-11T01:56:18.060Z,89.45
2022-12-11T01:59:07.173Z,101.53
2022-12-11T02:01:42.524Z,91.83
2022-12-11T02:04:07.675Z,88.87
2022-12-11T02:06:40.010Z,87.37
2022-12-11T02:09:05.602Z,80.33
2022-12-11T02:11:42.570Z,90.83
2022-12-11T02:14:19.262Z,93.17
2022-12-11T02:16:59.127Z,92.63
2022-12-11T02:19:48.073Z,83.23
2022-12-11T02:22:22.678Z,95.83
2022-12-11T02:25:20.852Z,81.70
2022-12-11T02:27:57.671Z,83.63
2022-12-11T02:30:19.927Z,79.07
2022-12-11T02:32:59.227Z,83.07
2022-12-11T02:35:33.547Z,84.43
2022-12-11T02:38:07.988Z,80.30
2022-12-11T02:40:35.413Z,79.65
2022-12-11T02:43:04.841Z,82.53
2022-12-11T02:45:29.036Z,83.13
2022-12-11T02:47:52.897Z,78.68
2022-12-11T02:50:20.590Z,81.80
2022-12-11T02:52:44.931Z,81.87
2022-12-11T02:55:12.901Z,82.88
2022-12-11T02:57:50.510Z,89.53
2022-12-11T03:00:13.654Z,80.63
2022-12-11T04:51:54.691Z,54.80
2022-12-11T04:54:23.461Z,48.73
2022-12-11T04:56:45.703Z,41.47
2022-12-11T04:59:08.218Z,46.30
2022-12-11T05:01:30.585Z,46.20
2022-12-11T05:03:53.011Z,39.10
2022-12-11T05:06:15.969Z,36.13
2022-12-11T05:08:41.387Z,39.80
2022-12-11T05:11:10.461Z,37.30
2022-12-11T05:13:33.035Z,37.90
2022-12-11T05:15:56.832Z,32.00
2022-12-11T05:18:19.313Z,31.40
2022-12-11T07:26:22.884Z,26.00
2022-12-11T07:28:45.664Z,21.60
2022-12-11T07:31:11.206Z,25.20
2022-12-11T07:33:34.416Z,30.20
2022-12-11T07:35:57.010Z,30.27
2022-12-11T07:38:19.344Z,28.60
2022-12-11T07:40:41.892Z,26.27
2022-12-11T07:43:04.472Z,28.37
2022-12-11T07:45:27.027Z,27.13
2022-12-11T07:47:49.435Z,30.73
2022-12-11T09:26:55.265Z,31.83
2022-12-11T09:29:17.531Z,31.00
2022-12-11T09:31:40.014Z,29.83
2022-12-11T09:34:06.967Z,28.93
2022-12-11T09:36:30.044Z,27.00
2022-12-11T09:38:52.897Z,26.90
2022-12-11T09:41:20.901Z,29.10
2022-12-11T09:43:52.867Z,26.63
2022-12-11T09:46:17.585Z,27.13
2022-12-11T09:48:45.530Z,28.33
2022-12-11T09:51:37.679Z,26.87
2022-12-11T09:54:04.885Z,32.47
2022-12-11T09:56:41.955Z,27.77
2022-12-11T09:59:17.041Z,26.70
2022-12-11T10:01:59.787Z,26.83
2022-12-11T10:04:50.335Z,25.80
2022-12-11T10:07:31.087Z,26.07
2022-12-11T10:10:12.032Z,26.40
2022-12-11T10:13:06.798Z,26.47
2022-12-11T10:15:40.434Z,28.13
2022-12-11T10:18:10.193Z,28.53
2022-12-11T10:20:40.827Z,29.47
2022-12-11T10:23:08.298Z,32.20
2022-12-11T10:25:40.833Z,27.20
2022-12-11T10:28:16.873Z,29.73
2022-12-11T10:30:49.235Z,26.83
2022-12-11T10:33:11.931Z,28.43
2022-12-11T10:36:00.966Z,28.87
2022-12-11T10:38:42.903Z,25.93
2022-12-11T10:41:21.174Z,27.70
2022-12-11T10:43:50.801Z,27.83
2022-12-11T10:46:22.696Z,26.50
2022-12-11T10:49:02.794Z,24.20
2022-12-11T10:51:38.627Z,30.13
2022-12-11T10:54:32.827Z,25.73
2022-12-11T10:56:57.131Z,28.07
2022-12-11T10:59:50.943Z,26.80
2022-12-11T11:02:28.322Z,27.77
2022-12-11T11:04:53.937Z,29.00
2022-12-11T11:07:24.582Z,24.37
2022-12-11T11:09:48.031Z,26.83
2022-12-11T11:12:27.437Z,24.85
2022-12-11T11:15:07.119Z,27.00
2022-12-11T11:17:35.123Z,25.00
2022-12-11T11:20:12.421Z,23.37
2022-12-11T11:22:44.786Z,27.30
2022-12-11T11:25:22.253Z,28.60
2022-12-11T11:27:51.560Z,26.63
2022-12-11T11:30:31.608Z,25.60
2022-12-11T11:33:12.758Z,25.27
2022-12-11T11:35:35.406Z,29.43
2022-12-11T11:38:10.019Z,28.80
2022-12-11T11:40:43.509Z,27.23
2022-12-11T11:43:47.872Z,27.73
2022-12-11T11:46:31.118Z,25.00
2022-12-11T11:49:34.417Z,27.70
2022-12-11T11:52:45.716Z,25.20
2022-12-11T11:55:52.051Z,24.37
2022-12-11T11:58:28.233Z,24.30
2022-12-11T12:00:55.184Z,23.90
2022-12-11T12:03:24.106Z,25.17
2022-12-11T12:06:14.892Z,25.27
2022-12-11T12:09:13.172Z,21.67
2022-12-11T12:11:52.341Z,22.70
2022-12-11T12:15:06.696Z,27.70
2022-12-11T12:17:51.972Z,22.93
2022-12-11T12:21:00.868Z,23.13
2022-12-11T12:23:53.613Z,21.15
2022-12-11T12:26:52.493Z,22.50
2022-12-11T12:29:58.423Z,24.33
2022-12-11T12:35:36.333Z,23.20
2022-12-11T12:38:32.593Z,21.97
2022-12-11T12:41:06.927Z,23.53
2022-12-11T12:44:02.918Z,22.30
2022-12-11T12:46:38.548Z,22.80
2022-12-11T12:49:04.936Z,22.27
2022-12-11T12:51:29.167Z,21.87
2022-12-11T12:54:06.556Z,23.95
2022-12-11T12:56:35.335Z,20.23
2022-12-11T12:58:59.404Z,24.93
2022-12-11T13:01:26.153Z,23.20
2022-12-11T13:04:16.758Z,22.73
2022-12-11T13:06:50.262Z,23.50
2022-12-11T13:09:22.143Z,26.60
2022-12-11T13:11:47.024Z,22.33
2022-12-11T13:14:15.680Z,23.10
2022-12-11T13:16:42.259Z,23.37
2022-12-11T13:19:25.728Z,20.17
2022-12-11T13:22:16.887Z,22.43
2022-12-11T13:25:17.068Z,22.97
2022-12-11T13:27:43.797Z,19.93
2022-12-11T13:30:26.914Z,27.00
2022-12-11T13:33:15.001Z,22.80
2022-12-11T13:35:37.852Z,21.07
2022-12-11T13:38:08.539Z,24.47
2022-12-11T13:40:40.328Z,24.80
2022-12-11T13:43:08.887Z,22.40
2022-12-11T13:45:51.043Z,24.30
2022-12-11T13:48:39.691Z,24.80
2022-12-11T13:51:02.908Z,22.93
2022-12-11T13:53:25.568Z,23.07
2022-12-11T13:55:58.740Z,23.40
2022-12-11T13:58:23.584Z,23.33
2022-12-11T14:01:08.068Z,24.37
2022-12-11T14:03:32.853Z,26.45
2022-12-11T14:05:55.530Z,22.97
2022-12-11T14:08:32.999Z,22.43
2022-12-11T14:10:55.870Z,24.60
2022-12-11T14:13:24.344Z,26.87
2022-12-11T14:15:47.060Z,25.37
2022-12-11T14:18:24.786Z,24.43
2022-12-11T14:20:59.047Z,23.63
2022-12-11T14:23:25.796Z,21.75
2022-12-11T14:26:04.436Z,26.97
2022-12-11T14:28:30.706Z,23.60
2022-12-11T14:30:55.686Z,26.70
2022-12-11T14:33:22.609Z,23.73
2022-12-11T14:35:47.406Z,25.03
2022-12-11T14:38:44.689Z,22.13
2022-12-11T14:41:47.784Z,26.30
2022-12-11T14:44:17.010Z,25.63
2022-12-11T14:46:50.521Z,21.47
2022-12-11T14:49:40.422Z,24.27
2022-12-11T14:52:05.074Z,25.57
2022-12-11T14:54:40.402Z,26.33
2022-12-11T14:57:06.753Z,24.87
2022-12-11T14:59:32.461Z,25.40
2022-12-11T15:02:01.808Z,27.37
2022-12-11T15:04:31.008Z,25.73
2022-12-11T15:06:53.582Z,30.30
2022-12-11T15:09:38.268Z,24.27
2022-12-11T15:12:15.519Z,21.80
2022-12-11T15:14:51.301Z,21.97
2022-12-11T15:17:15.941Z,25.17
2022-12-11T15:19:40.174Z,20.87
2022-12-11T15:22:08.773Z,19.75
2022-12-11T15:24:35.241Z,22.63
2022-12-11T15:27:01.230Z,21.43
2022-12-11T15:29:40.538Z,22.77
2022-12-11T15:32:08.718Z,22.97
2022-12-11T15:34:59.941Z,24.13
2022-12-11T15:37:27.923Z,20.90
2022-12-11T15:39:51.011Z,21.83
2022-12-11T15:42:29.308Z,23.93
2022-12-11T15:44:52.118Z,21.57
2022-12-11T15:47:26.890Z,20.30
2022-12-11T18:37:54.061Z,24.17
